createdAt,value
2023-04-04T00:05:25.817Z,983.24
2023-04-04T00:11:22.818Z,983.16
2023-04-04T00:17:22.860Z,983.11
2023-04-04T00:23:23.191Z,983.10
2023-04-04T00:29:24.347Z,983.09
2023-04-04T00:35:22.879Z,983.21
2023-04-04T00:41:24.921Z,983.20
2023-04-04T00:47:22.933Z,983.16
2023-04-04T00:53:22.909Z,983.14
2023-04-04T00:59:22.972Z,983.03
2023-04-04T01:05:25.825Z,983.10
2023-04-04T01:11:22.894Z,982.98
2023-04-04T01:17:24.449Z,983.01
2023-04-04T01:23:22.913Z,982.94
2023-04-04T01:29:22.897Z,982.83
2023-04-04T01:35:25.145Z,982.78
2023-04-04T01:41:22.930Z,982.70
2023-04-04T01:47:22.944Z,982.63
2023-04-04T01:53:22.909Z,982.61
2023-04-04T01:59:23.043Z,982.50
2023-04-04T02:05:22.922Z,982.58
2023-04-04T02:11:22.954Z,982.52
2023-04-04T02:17:22.935Z,982.45
2023-04-04T02:23:22.954Z,982.35
2023-04-04T02:29:22.930Z,982.30
2023-04-04T02:35:22.933Z,982.24
2023-04-04T02:41:28.030Z,982.21
2023-04-04T02:47:25.158Z,981.97
2023-04-04T02:53:22.985Z,982.16
2023-04-04T02:59:23.110Z,982.04
2023-04-04T03:05:22.956Z,981.92
2023-04-04T03:11:22.989Z,981.74
2023-04-04T03:17:28.998Z,981.76
2023-04-04T03:23:22.980Z,981.72
2023-04-04T03:29:22.982Z,981.75
2023-04-04T03:35:22.979Z,981.68
2023-04-04T03:41:23.394Z,981.62
2023-04-04T03:47:23.030Z,981.68
2023-04-04T03:53:23.021Z,981.69
2023-04-04T03:59:23.126Z,981.81
2023-04-04T04:05:23.030Z,981.85
2023-04-04T04:11:22.999Z,981.90
2023-04-04T04:17:23.186Z,981.99
2023-04-04T04:23:23.032Z,982.09
2023-04-04T04:29:23.156Z,982.10
2023-04-04T04:35:23.210Z,982.20
2023-04-04T04:41:23.326Z,982.23
2023-04-04T04:47:23.113Z,982.30
2023-04-04T04:53:23.340Z,982.03
2023-04-04T04:59:23.331Z,982.31
2023-04-04T05:05:23.143Z,982.32
2023-04-04T05:11:23.099Z,982.30
2023-04-04T05:17:23.083Z,982.38
2023-04-04T05:23:23.034Z,982.38
2023-04-04T05:29:23.453Z,982.56
2023-04-04T05:35:23.237Z,982.55
2023-04-04T05:41:23.159Z,982.48
2023-04-04T05:47:23.124Z,982.55
2023-04-04T05:53:23.223Z,982.42
2023-04-04T05:59:23.180Z,982.59
2023-04-04T06:05:23.156Z,982.54
2023-04-04T06:11:23.160Z,982.67
2023-04-04T06:17:23.118Z,982.75
2023-04-04T06:23:23.120Z,982.62
2023-04-04T06:29:23.132Z,982.64
2023-04-04T06:35:23.095Z,982.73
2023-04-04T06:41:23.428Z,982.66
2023-04-04T06:47:23.155Z,982.71
2023-04-04T06:53:23.141Z,982.86
2023-04-04T06:59:23.180Z,982.54
2023-04-04T07:05:23.126Z,982.57
2023-04-04T07:11:23.140Z,982.55
2023-04-04T07:17:25.245Z,982.25
2023-04-04T07:23:23.170Z,982.55
2023-04-04T07:29:23.145Z,982.57
2023-04-04T07:35:23.175Z,982.37
2023-04-04T07:41:23.171Z,982.59
2023-04-04T07:47:23.203Z,982.52
2023-04-04T07:53:23.174Z,982.39
2023-04-04T07:59:23.238Z,982.38
2023-04-04T08:05:23.182Z,982.45
2023-04-04T08:11:24.668Z,982.42
2023-04-04T08:17:23.238Z,982.35
2023-04-04T08:23:23.220Z,982.42
2023-04-04T08:29:23.473Z,982.64
2023-04-04T08:35:23.280Z,982.37
2023-04-04T08:41:23.278Z,982.26
2023-04-04T08:47:23.310Z,982.37
2023-04-04T08:53:23.454Z,982.33
2023-04-04T08:59:23.289Z,982.13
2023-04-04T09:05:23.482Z,982.04
2023-04-04T09:11:23.361Z,982.21
2023-04-04T09:17:23.313Z,982.09
2023-04-04T09:23:23.303Z,982.05
2023-04-04T09:29:23.287Z,982.00
2023-04-04T09:35:23.291Z,981.92
2023-04-04T09:41:23.230Z,982.01
2023-04-04T09:47:30.501Z,982.01
2023-04-04T09:53:23.225Z,982.16
2023-04-04T09:59:23.396Z,981.90
2023-04-04T10:05:23.271Z,981.83
2023-04-04T10:11:24.140Z,981.97
2023-04-04T10:17:23.251Z,981.72
2023-04-04T10:23:23.323Z,981.78
2023-04-04T10:29:23.276Z,981.48
2023-04-04T10:35:23.316Z,981.65
2023-04-04T10:41:23.358Z,981.62
2023-04-04T10:47:23.527Z,981.57
2023-04-04T10:53:23.967Z,981.41
2023-04-04T10:59:23.320Z,981.35
2023-04-04T11:05:23.322Z,981.22
2023-04-04T11:11:23.357Z,980.99
2023-04-04T11:17:23.376Z,981.10
2023-04-04T11:23:23.411Z,980.88
2023-04-04T11:29:23.383Z,980.78
2023-04-04T11:35:23.741Z,980.83
2023-04-04T11:41:23.781Z,980.94
2023-04-04T11:47:23.373Z,980.70
2023-04-04T11:53:23.522Z,980.71
2023-04-04T11:59:23.467Z,980.90
2023-04-04T12:05:23.566Z,980.66
2023-04-04T12:11:23.397Z,980.83
2023-04-04T12:17:23.375Z,980.67
2023-04-04T12:23:23.389Z,980.61
2023-04-04T12:29:23.403Z,980.70
2023-04-04T12:35:23.418Z,980.70
2023-04-04T12:41:23.417Z,980.75
2023-04-04T12:47:23.396Z,980.67
2023-04-04T12:59:23.464Z,980.80
2023-04-04T13:05:23.459Z,980.65
2023-04-04T13:11:23.454Z,980.56
2023-04-04T13:17:23.461Z,980.61
2023-04-04T13:23:23.428Z,980.67
2023-04-04T13:29:23.463Z,980.38
2023-04-04T13:35:23.466Z,980.49
2023-04-04T13:41:23.457Z,980.21
2023-04-04T13:47:23.487Z,980.39
2023-04-04T13:53:23.510Z,980.44
2023-04-04T13:59:23.526Z,980.02
2023-04-04T14:05:23.485Z,980.39
2023-04-04T14:11:23.734Z,980.29
2023-04-04T14:17:23.487Z,980.35
2023-04-04T14:23:23.852Z,980.41
2023-04-04T14:29:23.629Z,980.29
2023-04-04T14:35:23.511Z,980.27
2023-04-04T14:41:23.626Z,980.35
2023-04-04T14:47:23.560Z,980.34
2023-04-04T14:53:23.507Z,980.32
2023-04-04T14:59:23.586Z,980.34
2023-04-04T15:05:23.538Z,980.31
2023-04-04T15:11:23.542Z,980.41
2023-04-04T15:17:23.566Z,980.46
2023-04-04T15:23:23.531Z,980.54
2023-04-04T15:29:23.529Z,980.36
2023-04-04T15:35:23.518Z,980.32
2023-04-04T15:41:23.551Z,980.46
2023-04-04T15:47:23.562Z,980.46
2023-04-04T15:53:23.568Z,980.55
2023-04-04T15:59:23.663Z,980.54
2023-04-04T16:05:23.581Z,980.45
2023-04-04T16:11:23.575Z,980.65
2023-04-04T16:17:23.603Z,980.78
2023-04-04T16:23:23.665Z,980.77
2023-04-04T16:29:23.608Z,980.76
2023-04-04T16:35:23.628Z,980.75
2023-04-04T16:41:23.599Z,980.82
2023-04-04T16:47:24.697Z,980.85
2023-04-04T16:53:23.666Z,980.79
2023-04-04T16:59:23.639Z,980.91
2023-04-04T17:05:23.647Z,981.02
2023-04-04T17:11:23.622Z,980.91
2023-04-04T17:17:23.600Z,980.96
2023-04-04T17:23:23.692Z,980.93
2023-04-04T17:29:23.637Z,981.02
2023-04-04T17:35:23.623Z,981.12
2023-04-04T17:41:23.729Z,981.14
2023-04-04T17:47:24.078Z,981.15
2023-04-04T17:53:23.698Z,981.32
2023-04-04T17:59:23.808Z,981.46
2023-04-04T18:05:23.691Z,981.37
2023-04-04T18:11:23.732Z,981.44
2023-04-04T18:17:23.680Z,981.45
2023-04-04T18:23:23.695Z,981.60
2023-04-04T18:29:23.709Z,981.64
2023-04-04T18:35:23.742Z,981.67
2023-04-04T18:41:23.752Z,981.71
2023-04-04T18:47:23.719Z,981.89
2023-04-04T18:53:23.695Z,981.84
2023-04-04T18:59:23.751Z,982.05
2023-04-04T19:05:23.742Z,982.14
2023-04-04T19:11:23.728Z,982.24
2023-04-04T19:17:23.737Z,982.22
2023-04-04T19:23:23.721Z,982.31
2023-04-04T19:29:23.795Z,982.48
2023-04-04T19:35:23.782Z,982.43
2023-04-04T19:41:23.774Z,982.54
2023-04-04T19:47:23.758Z,982.44
2023-04-04T19:53:23.762Z,982.73
2023-04-04T19:59:23.797Z,982.69
2023-04-04T20:11:23.902Z,982.69
2023-04-04T20:17:23.779Z,982.77
2023-04-04T20:23:23.811Z,982.70
2023-04-04T20:29:23.772Z,982.82
2023-04-04T20:35:24.095Z,982.87
2023-04-04T20:41:23.835Z,982.85
2023-04-04T20:47:23.841Z,983.04
2023-04-04T20:53:23.801Z,983.14
2023-04-04T20:59:23.895Z,983.16
2023-04-04T21:05:23.885Z,983.16
2023-04-04T21:11:23.808Z,983.31
2023-04-04T21:17:25.906Z,983.39
2023-04-04T21:23:23.855Z,983.33
2023-04-04T21:29:25.835Z,983.43
2023-04-04T21:35:23.917Z,983.44
2023-04-04T21:41:23.904Z,983.38
2023-04-04T21:47:23.913Z,983.47
2023-04-04T21:53:23.829Z,983.41
2023-04-04T21:59:23.895Z,983.40
2023-04-04T22:05:32.406Z,983.42
2023-04-04T22:11:23.896Z,983.41
2023-04-04T22:17:23.877Z,983.35
2023-04-04T22:23:23.925Z,983.29
2023-04-04T22:29:23.882Z,983.36
2023-04-04T22:35:23.897Z,983.48
2023-04-04T22:41:29.920Z,983.42
2023-04-04T22:47:23.882Z,983.33
2023-04-04T22:53:23.878Z,983.38
2023-04-04T22:59:25.958Z,983.22
2023-04-04T23:05:23.905Z,983.16
2023-04-04T23:11:23.901Z,983.25
2023-04-04T23:17:23.884Z,983.20
2023-04-04T23:23:23.917Z,983.19
2023-04-04T23:29:23.938Z,983.15
2023-04-04T23:35:23.920Z,983.12
2023-04-04T23:41:26.964Z,983.10
2023-04-04T23:47:23.957Z,983.04
2023-04-04T23:53:23.930Z,983.04
2023-04-04T23:59:24.043Z,982.93
